createdAt,value
2019-05-10T00:00:13.396Z,15.08
2019-05-10T00:03:00.407Z,14.10
2019-05-10T00:05:47.958Z,14.18
2019-05-10T00:08:34.941Z,16.42
2019-05-10T00:11:35.137Z,15.05
2019-05-10T00:14:22.994Z,13.25
2019-05-10T00:16:53.838Z,15.43
2019-05-10T00:19:23.358Z,16.35
2019-05-10T00:21:52.096Z,17.70
2019-05-10T00:24:21.257Z,18.75
2019-05-10T00:26:50.290Z,20.52
2019-05-10T00:29:19.047Z,20.60
2019-05-10T00:31:47.988Z,20.97
2019-05-10T00:34:16.746Z,22.30
2019-05-10T00:36:45.692Z,24.30
2019-05-10T00:39:14.912Z,23.42
2019-05-10T00:41:43.656Z,25.02
2019-05-10T00:44:12.341Z,26.68
2019-05-10T00:46:41.354Z,28.23
2019-05-10T00:49:10.137Z,33.48
2019-05-10T00:51:38.811Z,29.37
2019-05-10T00:54:08.134Z,29.02
2019-05-10T00:56:36.912Z,29.70
2019-05-10T00:59:05.969Z,29.25
2019-05-10T01:01:34.967Z,30.90
2019-05-10T01:04:03.961Z,31.00
2019-05-10T01:06:32.782Z,32.90
2019-05-10T01:09:01.511Z,31.33
2019-05-10T01:11:31.243Z,33.80
2019-05-10T01:14:00.181Z,34.67
2019-05-10T01:16:29.026Z,36.70
2019-05-10T01:18:58.215Z,34.80
2019-05-10T01:21:27.416Z,47.98
2019-05-10T01:23:56.344Z,36.50
2019-05-10T01:26:25.295Z,42.00
2019-05-10T01:28:54.237Z,30.90
2019-05-10T01:31:23.102Z,34.20
2019-05-10T01:33:52.273Z,33.40
2019-05-10T01:36:23.798Z,34.13
2019-05-10T01:38:52.754Z,37.28
2019-05-10T01:41:21.854Z,37.88
2019-05-10T01:43:50.537Z,42.17
2019-05-10T01:46:19.225Z,48.80
2019-05-10T01:48:48.143Z,41.70
2019-05-10T01:51:16.840Z,50.98
2019-05-10T01:53:50.414Z,41.02
2019-05-10T01:56:19.415Z,42.80
2019-05-10T01:58:48.575Z,42.90
2019-05-10T02:01:17.818Z,43.05
2019-05-10T02:03:46.519Z,45.52
2019-05-10T02:06:15.464Z,45.75
2019-05-10T02:08:44.143Z,47.60
2019-05-10T02:11:15.454Z,45.70
2019-05-10T02:13:44.138Z,45.40
2019-05-10T02:16:13.134Z,45.35
2019-05-10T02:18:41.819Z,44.70
2019-05-10T02:21:10.505Z,42.00
2019-05-10T02:23:39.434Z,39.70
2019-05-10T02:26:09.950Z,40.75
2019-05-10T02:28:39.419Z,39.48
2019-05-10T02:31:08.178Z,39.08
2019-05-10T02:33:37.126Z,37.80
2019-05-10T02:36:05.885Z,38.70
2019-05-10T02:38:35.137Z,38.80
2019-05-10T02:41:03.953Z,35.05
2019-05-10T02:43:33.135Z,35.13
2019-05-10T02:46:02.047Z,34.20
2019-05-10T02:48:30.749Z,31.55
2019-05-10T02:50:59.920Z,33.90
2019-05-10T02:53:28.751Z,32.45
2019-05-10T02:55:58.650Z,31.68
2019-05-10T02:58:27.492Z,30.88
2019-05-10T03:00:57.884Z,31.40
2019-05-10T03:03:28.976Z,30.17
2019-05-10T03:05:59.187Z,30.43
2019-05-10T03:08:31.992Z,27.40
2019-05-10T03:11:00.979Z,26.33
2019-05-10T03:13:30.469Z,24.20
2019-05-10T03:16:04.391Z,21.90
2019-05-10T03:18:34.111Z,21.75
2019-05-10T03:21:02.741Z,20.57
2019-05-10T03:23:32.071Z,18.85
2019-05-10T03:26:00.873Z,18.00
2019-05-10T03:28:29.580Z,17.42
2019-05-10T03:30:58.501Z,18.65
2019-05-10T03:33:27.221Z,17.40
2019-05-10T03:35:55.973Z,17.10
2019-05-10T03:38:24.731Z,15.98
2019-05-10T03:40:53.560Z,15.68
2019-05-10T03:43:22.229Z,15.15
2019-05-10T03:45:51.214Z,15.95
2019-05-10T03:48:20.156Z,16.20
2019-05-10T03:50:49.085Z,16.12
2019-05-10T03:53:17.780Z,16.62
2019-05-10T03:55:46.830Z,16.93
2019-05-10T03:58:15.526Z,18.30
2019-05-10T04:00:44.683Z,18.95
2019-05-10T04:03:16.295Z,17.50
2019-05-10T04:05:44.968Z,17.92
2019-05-10T04:08:13.937Z,19.20
2019-05-10T04:10:42.627Z,17.70
2019-05-10T04:13:11.318Z,17.70
2019-05-10T04:15:40.006Z,17.90
2019-05-10T04:18:08.962Z,18.57
2019-05-10T04:20:37.644Z,17.02
2019-05-10T04:23:06.331Z,17.98
2019-05-10T04:25:35.532Z,18.40
2019-05-10T04:28:04.272Z,18.65
2019-05-10T04:30:32.947Z,19.95
2019-05-10T04:33:04.242Z,20.72
2019-05-10T04:35:33.240Z,18.17
2019-05-10T04:38:02.169Z,18.80
2019-05-10T04:40:30.857Z,21.05
2019-05-10T04:42:59.821Z,19.75
2019-05-10T04:45:28.594Z,19.15
2019-05-10T04:47:57.435Z,19.30
2019-05-10T04:50:26.141Z,19.65
2019-05-10T04:52:54.808Z,20.48
2019-05-10T04:55:23.508Z,20.57
2019-05-10T04:57:52.268Z,21.73
2019-05-10T05:00:20.948Z,21.75
2019-05-10T05:02:49.621Z,21.25
2019-05-10T05:05:18.383Z,21.17
2019-05-10T05:07:49.184Z,21.52
2019-05-10T05:10:17.919Z,21.20
2019-05-10T05:12:46.857Z,21.85
2019-05-10T05:15:17.123Z,22.60
2019-05-10T05:17:45.798Z,24.10
2019-05-10T05:20:14.645Z,24.43
2019-05-10T05:22:43.923Z,25.20
2019-05-10T05:25:12.838Z,25.90
2019-05-10T05:27:41.515Z,27.13
2019-05-10T05:30:10.570Z,26.12
2019-05-10T05:32:44.284Z,27.00
2019-05-10T05:35:09.913Z,28.17
2019-05-10T05:37:38.872Z,27.27
2019-05-10T05:40:07.983Z,27.35
2019-05-10T05:42:36.696Z,26.90
2019-05-10T05:45:05.690Z,26.90
2019-05-10T05:47:37.470Z,26.50
2019-05-10T05:50:05.667Z,27.80
2019-05-10T05:52:34.598Z,28.17
2019-05-10T05:55:03.306Z,27.82
2019-05-10T05:57:32.235Z,27.87
2019-05-10T06:00:03.890Z,26.85
2019-05-10T06:02:31.325Z,28.52
2019-05-10T06:05:00.089Z,26.20
2019-05-10T06:07:31.085Z,25.82
2019-05-10T06:09:59.207Z,26.05
2019-05-10T06:12:28.148Z,25.97
2019-05-10T06:14:56.835Z,25.62
2019-05-10T06:17:29.582Z,25.32
2019-05-10T06:20:00.932Z,26.02
2019-05-10T06:22:26.469Z,24.98
2019-05-10T06:24:55.414Z,25.25
2019-05-10T06:27:24.635Z,25.68
2019-05-10T06:29:53.345Z,25.27
2019-05-10T06:32:22.295Z,25.72
2019-05-10T06:34:51.271Z,24.70
2019-05-10T06:37:20.038Z,22.48
2019-05-10T06:39:49.276Z,23.30
2019-05-10T06:42:18.207Z,22.55
2019-05-10T06:44:46.936Z,23.52
2019-05-10T06:47:15.628Z,22.00
2019-05-10T06:49:50.745Z,23.55
2019-05-10T06:52:16.457Z,21.48
2019-05-10T06:54:45.230Z,22.85
2019-05-10T06:57:17.489Z,97.90
2019-05-10T06:59:44.573Z,45.65
2019-05-10T07:02:13.299Z,56.98
2019-05-10T07:04:42.015Z,65.37
2019-05-10T07:07:22.087Z,106.50
2019-05-10T07:10:03.798Z,50.40
2019-05-10T07:12:15.184Z,24.63
2019-05-10T07:14:46.084Z,66.05
2019-05-10T07:17:15.060Z,26.73
2019-05-10T07:19:53.267Z,30.68
2019-05-10T07:22:14.394Z,35.25
2019-05-10T07:24:43.449Z,25.32
2019-05-10T07:27:12.164Z,32.70
2019-05-10T07:29:42.967Z,42.25
2019-05-10T07:32:16.463Z,26.57
2019-05-10T07:34:41.933Z,27.40
2019-05-10T07:37:20.866Z,30.95
2019-05-10T07:39:41.092Z,29.55
2019-05-10T07:42:09.807Z,30.72
2019-05-10T07:44:41.614Z,32.28
2019-05-10T07:47:08.977Z,29.90
2019-05-10T07:49:37.681Z,27.60
2019-05-10T07:52:06.462Z,29.23
2019-05-10T07:54:37.504Z,29.63
2019-05-10T07:57:05.576Z,29.92
2019-05-10T07:59:49.501Z,32.33
2019-05-10T08:02:05.850Z,31.48
2019-05-10T08:04:35.490Z,30.95
2019-05-10T08:07:07.342Z,31.48
2019-05-10T08:09:37.229Z,32.05
2019-05-10T08:12:05.546Z,31.40
2019-05-10T08:14:35.734Z,32.70
2019-05-10T08:17:06.314Z,32.98
2019-05-10T08:19:37.681Z,32.83
2019-05-10T08:22:08.808Z,32.42
2019-05-10T08:24:36.279Z,30.15
2019-05-10T08:27:11.588Z,30.48
2019-05-10T08:29:35.770Z,30.62
2019-05-10T08:32:04.707Z,32.50
2019-05-10T08:34:35.470Z,32.17
2019-05-10T08:37:04.089Z,30.57
2019-05-10T08:39:44.093Z,28.25
2019-05-10T08:42:13.624Z,27.65
2019-05-10T08:44:34.233Z,26.35
2019-05-10T08:47:07.654Z,25.43
2019-05-10T08:49:43.546Z,27.00
2019-05-10T08:52:04.119Z,23.30
2019-05-10T08:54:32.952Z,21.07
2019-05-10T08:57:05.230Z,20.32
2019-05-10T08:59:33.947Z,19.12
2019-05-10T09:02:02.413Z,18.30
2019-05-10T09:04:41.749Z,18.15
2019-05-10T09:07:02.844Z,18.65
2019-05-10T09:09:33.858Z,17.80
2019-05-10T09:12:04.081Z,15.63
2019-05-10T09:14:32.804Z,16.00
2019-05-10T09:17:04.307Z,13.18
2019-05-10T09:19:39.623Z,13.32
2019-05-10T09:22:02.842Z,13.28
2019-05-10T09:24:34.531Z,13.48
2019-05-10T09:27:02.233Z,12.95
2019-05-10T09:29:35.192Z,12.43
2019-05-10T09:32:06.208Z,12.98
2019-05-10T09:34:32.537Z,12.95
2019-05-10T09:37:02.993Z,12.75
2019-05-10T09:39:32.357Z,12.75
2019-05-10T09:42:08.486Z,12.70
2019-05-10T09:44:32.984Z,12.80
2019-05-10T09:47:04.072Z,12.45
2019-05-10T09:49:33.243Z,13.00
2019-05-10T09:52:12.693Z,11.85
2019-05-10T09:54:37.933Z,10.63
2019-05-10T09:57:08.235Z,9.65
2019-05-10T09:59:36.936Z,9.88
2019-05-10T10:02:14.682Z,11.22
2019-05-10T10:04:37.249Z,11.05
2019-05-10T10:07:06.044Z,8.43
2019-05-10T10:09:42.023Z,9.25
2019-05-10T10:12:06.918Z,9.25
2019-05-10T10:14:42.989Z,10.58
2019-05-10T10:17:08.839Z,10.25
2019-05-10T10:19:40.683Z,9.58
2019-05-10T10:22:11.020Z,7.03
2019-05-10T10:24:41.058Z,7.05
2019-05-10T10:27:09.326Z,6.40
2019-05-10T10:29:38.802Z,5.97
2019-05-10T10:32:08.084Z,6.15
2019-05-10T10:34:38.750Z,4.60
2019-05-10T10:37:07.944Z,4.25
2019-05-10T10:39:37.314Z,4.33
2019-05-10T10:42:08.822Z,4.08
2019-05-10T10:44:37.112Z,4.15
2019-05-10T10:47:08.018Z,3.52
2019-05-10T10:49:37.777Z,3.90
2019-05-10T10:52:11.190Z,4.10
2019-05-10T10:54:39.782Z,4.30
2019-05-10T10:57:08.147Z,4.50
2019-05-10T10:59:37.442Z,4.92
2019-05-10T11:02:28.999Z,4.80
2019-05-10T11:04:40.403Z,4.33
2019-05-10T11:07:10.816Z,5.40
2019-05-10T11:09:37.619Z,6.53
2019-05-10T11:12:06.310Z,9.55
2019-05-10T11:14:40.077Z,9.10
2019-05-10T11:17:05.427Z,7.40
2019-05-10T11:19:34.115Z,7.53
2019-05-10T11:22:09.433Z,6.55
2019-05-10T11:24:33.536Z,6.75
2019-05-10T11:27:02.456Z,4.92
2019-05-10T11:29:31.410Z,5.65
2019-05-10T11:32:14.664Z,5.85
2019-05-10T11:34:37.288Z,5.65
2019-05-10T11:37:03.509Z,5.20
2019-05-10T11:39:40.648Z,6.40
2019-05-10T11:42:07.177Z,5.62
2019-05-10T11:44:33.989Z,6.17
2019-05-10T11:47:02.672Z,5.60
2019-05-10T11:49:31.363Z,5.70
2019-05-10T11:52:01.645Z,5.62
2019-05-10T11:54:31.920Z,6.05
2019-05-10T11:57:06.107Z,5.35
2019-05-10T11:59:36.185Z,5.60
2019-05-10T12:02:03.013Z,5.92
2019-05-10T12:04:38.929Z,5.67
2019-05-10T12:07:08.333Z,5.28
2019-05-10T12:09:33.489Z,5.80
2019-05-10T12:12:03.409Z,5.55
2019-05-10T12:14:32.632Z,9.60
2019-05-10T12:17:05.602Z,33.73
2019-05-10T12:19:36.733Z,6.62
2019-05-10T12:22:04.573Z,6.15
2019-05-10T12:24:46.976Z,8.65
2019-05-10T12:27:18.706Z,6.25
2019-05-10T12:29:34.585Z,6.70
2019-05-10T12:32:03.247Z,5.22
2019-05-10T12:34:31.946Z,5.37
2019-05-10T12:37:06.298Z,4.90
2019-05-10T12:39:32.017Z,4.60
2019-05-10T12:42:00.699Z,4.92
2019-05-10T12:44:33.220Z,4.70
2019-05-10T12:47:01.298Z,4.97
2019-05-10T12:49:31.526Z,4.65
2019-05-10T12:52:00.267Z,4.70
2019-05-10T12:54:28.996Z,4.45
2019-05-10T12:56:57.950Z,4.00
2019-05-10T12:59:29.737Z,4.35
2019-05-10T13:02:04.354Z,4.20
2019-05-10T13:04:40.197Z,4.33
2019-05-10T13:07:00.311Z,4.42
2019-05-10T13:09:39.750Z,4.72
2019-05-10T13:12:04.025Z,4.22
2019-05-10T13:14:30.154Z,5.75
2019-05-10T13:17:03.885Z,7.35
2019-05-10T13:19:29.767Z,5.70
2019-05-10T13:22:00.768Z,7.12
2019-05-10T13:24:29.604Z,7.87
2019-05-10T13:26:58.296Z,5.10
2019-05-10T13:29:26.976Z,7.03
2019-05-10T13:31:56.740Z,5.03
2019-05-10T13:34:25.534Z,12.18
2019-05-10T13:36:54.505Z,6.35
2019-05-10T13:39:25.674Z,4.33
2019-05-10T13:41:57.294Z,6.92
2019-05-10T13:44:24.770Z,3.62
2019-05-10T13:46:53.534Z,4.62
2019-05-10T13:49:22.285Z,5.45
2019-05-10T13:51:51.382Z,4.50
2019-05-10T13:54:21.714Z,4.70
2019-05-10T13:56:55.041Z,5.55
2019-05-10T13:59:21.058Z,5.78
2019-05-10T14:01:51.498Z,6.20
2019-05-10T14:04:23.342Z,5.03
2019-05-10T14:09:21.032Z,4.85
2019-05-10T14:11:50.029Z,4.85
2019-05-10T14:14:20.364Z,4.78
2019-05-10T14:16:49.200Z,4.08
2019-05-10T14:19:22.810Z,4.30
2019-05-10T14:21:49.090Z,4.75
2019-05-10T14:24:19.129Z,4.08
2019-05-10T14:26:51.420Z,4.15
2019-05-10T14:29:18.565Z,4.50
2019-05-10T14:31:47.619Z,5.45
2019-05-10T14:34:16.284Z,4.25
2019-05-10T14:36:44.977Z,3.98
2019-05-10T14:39:13.648Z,3.92
2019-05-10T14:41:45.207Z,4.40
2019-05-10T14:44:12.786Z,3.92
2019-05-10T14:46:41.506Z,3.90
2019-05-10T14:49:11.800Z,4.78
2019-05-10T14:51:57.833Z,4.40
2019-05-10T14:54:13.107Z,4.20
2019-05-10T14:56:41.782Z,4.42
2019-05-10T14:59:10.473Z,4.15
2019-05-10T15:01:42.712Z,3.90
2019-05-10T15:04:09.821Z,4.30
2019-05-10T15:06:39.015Z,4.53
2019-05-10T15:09:20.581Z,5.08
2019-05-10T15:11:39.229Z,6.03
2019-05-10T15:14:08.528Z,5.85
2019-05-10T15:16:37.211Z,12.95
2019-05-10T15:19:05.882Z,6.15
2019-05-10T15:21:34.861Z,8.95
2019-05-10T15:24:03.810Z,6.78
2019-05-10T15:26:37.318Z,11.75
2019-05-10T15:29:02.914Z,9.05
2019-05-10T15:31:31.852Z,7.67
2019-05-10T15:34:04.766Z,8.45
2019-05-10T15:36:31.749Z,11.28
2019-05-10T15:39:00.509Z,13.45
2019-05-10T15:41:30.930Z,11.30
2019-05-10T15:43:59.641Z,6.67
2019-05-10T15:46:35.425Z,6.62
2019-05-10T15:48:58.795Z,12.18
2019-05-10T15:51:35.725Z,11.05
2019-05-10T15:54:07.019Z,12.93
2019-05-10T15:56:35.651Z,15.93
2019-05-10T15:59:05.446Z,8.53
2019-05-10T16:01:34.406Z,11.85
2019-05-10T16:04:03.111Z,8.58
2019-05-10T16:06:37.807Z,8.05
2019-05-10T16:09:08.697Z,6.75
2019-05-10T16:11:33.137Z,6.30
2019-05-10T16:14:02.079Z,5.45
2019-05-10T16:16:37.366Z,6.58
2019-05-10T16:19:01.490Z,6.37
2019-05-10T16:21:30.176Z,6.67
2019-05-10T16:23:59.111Z,5.80
2019-05-10T16:26:28.069Z,6.45
2019-05-10T16:29:01.824Z,5.37
2019-05-10T16:31:27.414Z,5.08
2019-05-10T16:33:56.137Z,6.08
2019-05-10T16:36:28.395Z,6.92
2019-05-10T16:39:01.390Z,5.65
2019-05-10T16:41:28.431Z,6.65
2019-05-10T16:43:58.419Z,5.72
2019-05-10T16:46:28.041Z,6.30
2019-05-10T16:48:57.225Z,6.30
2019-05-10T16:51:27.102Z,5.85
2019-05-10T16:53:55.791Z,6.28
2019-05-10T16:56:26.619Z,5.80
2019-05-10T16:58:55.327Z,6.20
2019-05-10T17:01:25.709Z,5.62
2019-05-10T17:03:59.841Z,5.45
2019-05-10T17:06:25.298Z,5.75
2019-05-10T17:08:53.993Z,5.33
2019-05-10T17:11:22.938Z,6.03
2019-05-10T17:13:55.579Z,8.20
2019-05-10T17:16:22.031Z,6.05
2019-05-10T17:18:55.126Z,5.45
2019-05-10T17:21:21.164Z,5.87
2019-05-10T17:23:50.130Z,5.30
2019-05-10T17:26:18.798Z,6.33
2019-05-10T17:28:47.589Z,6.80
2019-05-10T17:31:16.285Z,6.37
2019-05-10T17:33:45.229Z,6.80
2019-05-10T17:36:19.078Z,6.55
2019-05-10T17:38:47.454Z,7.25
2019-05-10T17:41:19.577Z,8.25
2019-05-10T17:43:45.324Z,7.45
2019-05-10T17:46:18.885Z,6.50
2019-05-10T17:48:49.417Z,8.03
2019-05-10T17:51:20.117Z,7.80
2019-05-10T17:53:54.965Z,7.03
2019-05-10T17:56:19.947Z,6.80
2019-05-10T17:58:48.601Z,7.83
2019-05-10T18:01:17.337Z,9.48
2019-05-10T18:03:46.082Z,10.80
2019-05-10T18:06:23.550Z,7.87
2019-05-10T18:08:45.496Z,7.58
2019-05-10T18:11:14.266Z,7.55
2019-05-10T18:13:43.240Z,7.03
2019-05-10T18:16:12.274Z,11.45
2019-05-10T18:18:46.272Z,13.78
2019-05-10T18:21:15.789Z,16.32
2019-05-10T18:23:42.060Z,11.90
2019-05-10T18:26:10.769Z,8.40
2019-05-10T18:28:41.114Z,6.75
2019-05-10T18:31:10.072Z,7.05
2019-05-10T18:33:39.302Z,7.53
2019-05-10T18:36:10.927Z,7.08
2019-05-10T18:38:39.077Z,7.58
2019-05-10T18:41:10.112Z,7.87
2019-05-10T18:43:40.824Z,7.83
2019-05-10T18:46:09.597Z,6.92
2019-05-10T18:48:38.555Z,7.50
2019-05-10T18:51:07.257Z,7.28
2019-05-10T18:53:38.303Z,12.95
2019-05-10T18:56:06.998Z,15.97
2019-05-10T18:58:35.734Z,15.05
2019-05-10T19:01:04.858Z,11.97
2019-05-10T19:03:35.377Z,10.00
2019-05-10T19:06:11.016Z,7.17
2019-05-10T19:08:37.996Z,6.45
2019-05-10T19:13:46.117Z,7.62
2019-05-10T19:16:06.129Z,6.62
2019-05-10T19:18:34.909Z,6.97
2019-05-10T19:21:04.001Z,7.20
2019-05-10T19:23:32.676Z,7.80
2019-05-10T19:26:03.897Z,8.13
2019-05-10T19:28:32.637Z,7.60
2019-05-10T19:31:01.393Z,10.20
2019-05-10T19:33:36.362Z,9.58
2019-05-10T19:36:00.481Z,10.38
2019-05-10T19:38:29.775Z,12.58
2019-05-10T19:40:59.339Z,10.48
2019-05-10T19:43:29.755Z,11.12
2019-05-10T19:45:59.722Z,9.28
2019-05-10T19:48:35.146Z,8.63
2019-05-10T19:51:02.831Z,7.50
2019-05-10T19:53:30.425Z,8.63
2019-05-10T19:55:59.328Z,8.55
2019-05-10T19:58:32.131Z,8.03
2019-05-10T20:00:58.630Z,9.05
2019-05-10T20:03:27.347Z,9.13
2019-05-10T20:05:56.081Z,10.25
2019-05-10T20:08:24.761Z,11.48
2019-05-10T20:10:53.463Z,11.50
2019-05-10T20:13:22.240Z,10.90
2019-05-10T20:15:51.191Z,13.45
2019-05-10T20:18:20.121Z,13.90
2019-05-10T20:20:48.811Z,13.95
2019-05-10T20:23:17.503Z,13.78
2019-05-10T20:25:46.290Z,14.05
2019-05-10T20:28:15.059Z,13.88
2019-05-10T20:30:43.989Z,14.20
2019-05-10T20:33:12.673Z,14.80
2019-05-10T20:35:41.674Z,15.58
2019-05-10T20:38:10.352Z,22.22
2019-05-10T20:40:39.137Z,78.92
2019-05-10T20:43:07.874Z,38.65
2019-05-10T20:45:36.827Z,22.15
2019-05-10T20:48:05.948Z,32.58
2019-05-10T20:50:34.651Z,103.42
2019-05-10T20:53:03.347Z,78.95
2019-05-10T20:55:32.362Z,35.52
2019-05-10T20:58:01.068Z,28.17
2019-05-10T21:00:30.537Z,28.07
2019-05-10T21:02:59.233Z,26.45
2019-05-10T21:05:28.245Z,24.90
2019-05-10T21:07:57.513Z,23.45
2019-05-10T21:10:26.194Z,24.35
2019-05-10T21:12:55.541Z,28.12
2019-05-10T21:15:24.327Z,27.35
2019-05-10T21:17:53.314Z,27.62
2019-05-10T21:20:21.999Z,24.45
2019-05-10T21:22:50.711Z,25.17
2019-05-10T21:25:19.684Z,25.15
2019-05-10T21:27:48.732Z,23.40
2019-05-10T21:30:17.810Z,23.25
2019-05-10T21:32:46.494Z,23.00
2019-05-10T21:35:15.560Z,23.65
2019-05-10T21:37:44.262Z,23.35
2019-05-10T21:40:13.286Z,22.90
2019-05-10T21:42:42.261Z,22.73
2019-05-10T21:45:11.362Z,22.90
2019-05-10T21:47:51.142Z,22.20
2019-05-10T21:50:10.891Z,21.85
2019-05-10T21:52:39.856Z,22.00
2019-05-10T21:55:08.856Z,21.35
2019-05-10T21:57:37.542Z,21.82
2019-05-10T22:00:07.168Z,21.42
2019-05-10T22:02:36.209Z,22.05
2019-05-10T22:05:05.983Z,23.62
2019-05-10T22:07:34.834Z,22.32
2019-05-10T22:10:04.001Z,22.48
2019-05-10T22:12:32.688Z,23.27
2019-05-10T22:15:01.376Z,22.77
2019-05-10T22:17:30.338Z,23.25
2019-05-10T22:19:59.049Z,24.27
2019-05-10T22:22:28.012Z,23.12
2019-05-10T22:24:56.760Z,24.12
2019-05-10T22:27:25.642Z,25.12
2019-05-10T22:29:54.320Z,22.27
2019-05-10T22:32:22.992Z,25.23
2019-05-10T22:34:51.937Z,24.52
2019-05-10T22:37:20.645Z,24.75
2019-05-10T22:39:49.318Z,23.10
2019-05-10T22:42:18.017Z,22.55
2019-05-10T22:44:46.691Z,21.62
2019-05-10T22:47:15.449Z,20.92
2019-05-10T22:49:46.377Z,21.80
2019-05-10T22:52:15.561Z,19.82
2019-05-10T22:54:56.171Z,19.65
2019-05-10T22:57:25.135Z,20.85
2019-05-10T22:59:53.805Z,19.95
2019-05-10T23:02:22.834Z,20.23
2019-05-10T23:04:51.531Z,19.90
2019-05-10T23:07:20.494Z,19.20
2019-05-10T23:09:49.179Z,20.23
2019-05-10T23:12:17.919Z,20.65
2019-05-10T23:14:46.608Z,20.88
2019-05-10T23:17:15.427Z,20.97
2019-05-10T23:19:44.128Z,20.77
2019-05-10T23:22:12.864Z,21.37
2019-05-10T23:24:41.549Z,22.17
2019-05-10T23:27:10.336Z,21.65
2019-05-10T23:29:39.035Z,21.95
2019-05-10T23:32:07.997Z,22.48
2019-05-10T23:34:36.957Z,21.33
2019-05-10T23:37:06.588Z,21.25
2019-05-10T23:39:40.668Z,21.17
2019-05-10T23:42:05.803Z,21.87
2019-05-10T23:44:34.768Z,22.17
2019-05-10T23:47:03.506Z,21.68
2019-05-10T23:49:32.704Z,22.02
2019-05-10T23:52:01.772Z,21.73
2019-05-10T23:54:32.812Z,21.62
2019-05-10T23:57:01.865Z,21.80
2019-05-10T23:59:31.276Z,20.70
